Nearby METAR Reports

 

KFNL - Ft Collins/Lovel, Colorado, USA
Distance from station: NW 10mi, 16km
Updated: Thu, 22-Nov-2018 3:56am MST
Clear
Clear
 Wind from NE
Wind: NE 5 mph , 7 km/h
Temperature: 30°F , -1°C
Wind Chill: 25°F , -4°C
Dew Point: 19°F , -7°C
Humidity: 64%
Barometer: 30.06 inHg , 1017.9 hPa
Clouds: Clear
Visibility: 10 miles , 16 km
2018/11/22 10:56 KFNL 221056Z AUTO 05004KT 10SM CLR M01/M07 A3006 RMK AO2 SLP169 T10061072 FZRANO PNO $
KGXY - Greeley/Weld, Colorado, USA
Distance from station: ENE 14mi, 23km
Updated: Thu, 22-Nov-2018 3:56am MST
Clear
Clear
 Wind from NE
Wind: NE 3 mph , 6 km/h
Temperature: 19°F , -7°C
Dew Point: 18°F , -8°C
Humidity: 93%
Barometer: 30.07 inHg , 1018.3 hPa
Clouds: Clear
Visibility: 10 miles , 16 km
2018/11/22 10:56 KGXY 221056Z AUTO 05003KT 10SM CLR M07/M08 A3007 RMK AO2 SLP199 T10671083 FZRANO
 
KLMO - Longmont/Vbrand, Colorado, USA
Distance from station: SW 20mi, 32km
Updated: Thu, 22-Nov-2018 4:15am MST
Clear
Clear
 Wind from W
Wind: W 3 mph , 6 km/h
Temperature: 28°F , -2°C
Dew Point: 19°F , -7°C
Humidity: 69%
Barometer: 30.07 inHg , 1018.3 hPa
Clouds: Clear
Visibility: 10 miles , 16 km
2018/11/22 11:15 KLMO 221115Z AUTO 28003KT 10SM CLR M02/M07 A3007 RMK AO2 T10211070
KEIK - Erie Muni, Colorado, USA
Distance from station: SSW 25mi, 40km
Updated: Thu, 22-Nov-2018 4:12am MST
Clear
Clear
 Wind from calm
Wind: Calm
Temperature: 25°F , -4°C
Dew Point: 18°F , -8°C
Humidity: 74%
Barometer: 30.11 inHg , 1019.6 hPa
Clouds: Clear
Visibility: 10 miles , 16 km
2018/11/22 11:12 KEIK 221112Z AUTO 00000KT 10SM CLR M04/M08 A3011 RMK AO2 T10421082
 
KBDU - Boulder Muni, Colorado, USA
Distance from station: SW 29mi, 47km
Updated: Thu, 22-Nov-2018 4:12am MST
Clear
Clear
 Wind from SSW
Wind: SSW 7 mph , 11 km/h
Temperature: 34°F , 1°C
Wind Chill: 28°F , -2°C
Dew Point: 18°F , -8°C
Humidity: 51%
Barometer: 30.04 inHg , 1017.3 hPa
Clouds: Clear
Visibility: 10 miles , 16 km
2018/11/22 11:12 KBDU 221112Z AUTO 21006KT 10SM CLR 01/M08 A3004 RMK AO2
KBJC - Broomfield/Jeffc, Colorado, USA
Distance from station: SSW 33mi, 54km
Updated: Thu, 22-Nov-2018 4:11am MST
Clear
Clear
 Wind from SE
Wind: SE 3 mph , 6 km/h
Temperature: 37°F , 3°C
Dew Point: 10°F , -12°C
Humidity: 33%
Barometer: 30.06 inHg , 1017.9 hPa
Clouds: Clear
Visibility: 10 miles , 16 km
2018/11/22 11:11 KBJC 221111Z AUTO 14003KT 10SM CLR 03/M12 A3006 RMK AO2
 
KDEN - Denver (dia), Colorado, USA
Distance from station: SSE 37mi, 59km
Updated: Thu, 22-Nov-2018 3:53am MST
Partly cloudy
Partly cloudy
 Wind from SW
Wind: SW 14 mph , 22 km/h
Temperature: 37°F , 3°C
Wind Chill: 28°F , -2°C
Dew Point: 10°F , -12°C
Humidity: 33%
Barometer: 30.06 inHg , 1017.9 hPa
Clouds: Partly cloudy
Visibility: 10 miles , 16 km
Cloud details: Partly cloudy 20000 ft
2018/11/22 10:53 KDEN 221053Z 22012KT 10SM SCT200 03/M12 A3006 RMK AO2 SLP149 T00331122
KFTG - Denver F. Range, Colorado, USA
Distance from station: SSE 43mi, 69km
Updated: Thu, 22-Nov-2018 4:12am MST
Clear
Clear
 Wind from S
Wind: S 8 mph , 13 km/h
Temperature: 32°F , 0°C
Wind Chill: 25°F , -4°C
Dew Point: 16°F , -9°C
Humidity: 51%
Barometer: 30.07 inHg , 1018.3 hPa
Clouds: Clear
Visibility: 10 miles , 16 km
2018/11/22 11:12 KFTG 221112Z AUTO 19007KT 10SM CLR 00/M09 A3007 RMK AO2 T10011090
 
KBKF - Buckley Angb/Den, Colorado, USA
Distance from station: S 44mi, 71km
Updated: Thu, 22-Nov-2018 2:58am MST
NOT Current
Few Clouds
Few Clouds
 Wind from SSW
Wind: SSW 13 mph , 20 km/h
Temperature: 34°F , 1°C
Wind Chill: 25°F , -4°C
Dew Point: 10°F , -12°C
Humidity: 38%
Barometer: 30.09 inHg , 1019 hPa
Clouds: Few Clouds
Visibility: 10 miles , 16 km
Cloud details: Few Clouds 22000 ft
2018/11/22 09:58 KBKF 220958Z 21011KT 10SM FEW220 01/M12 A3009 RMK AO2A SLP164 T00141117
KCAG - Craig, Colorado, USA
Distance from station: ESE 227mi, 365km
Updated: Thu, 22-Nov-2018 3:53am MST
Clear
Clear
 Wind from calm
Wind: Calm
Temperature: 16°F , -9°C
Dew Point: 12°F , -11°C
Humidity: 86%
Barometer: 30.16 inHg , 1021.3 hPa
Clouds: Clear
Visibility: 10 miles , 16 km
2018/11/22 10:53 KCAG 221053Z AUTO 00000KT 10SM CLR M09/M11 A3016 RMK AO2 SLP225 T10891111
 
KHDN - Hayden/Yampa, Colorado, USA
Distance from station: E 211mi, 339km
Updated: Thu, 22-Nov-2018 3:56am MST
Clear
Clear
 Wind from ESE
Wind: ESE 12 mph , 19 km/h
Temperature: 25°F , -4°C
Wind Chill: 14°F , -10°C
Dew Point: 10°F , -12°C
Humidity: 54%
Barometer: 30.17 inHg , 1021.7 hPa
Clouds: Clear
Visibility: 10 miles , 16 km
2018/11/22 10:56 KHDN 221056Z AUTO 11010KT 10SM CLR M04/M12 A3017 RMK AO2 SLP214 T10391117 FZRANO
KSBS - Steamboat Spring, Colorado, USA
Distance from station: E 186mi, 299km
Updated: Thu, 22-Nov-2018 4:15am MST
Clear
Clear
 Wind from calm
Wind: Calm
Temperature: 18°F , -8°C
Dew Point: 10°F , -12°C
Humidity: 73%
Barometer: 30.16 inHg , 1021.3 hPa
Clouds: Clear
Visibility: 10 miles , 16 km
2018/11/22 11:15 KSBS 221115Z AUTO 00000KT 10SM CLR M08/M12 A3016 RMK AO1 T10851125
 
KDWX - Dixon, Wyoming, USA
Distance from station: N 278mi, 447km
Updated: Thu, 22-Nov-2018 4:15am MST
Clear
Clear
 Wind from calm
Wind: Calm
Temperature: 18°F , -8°C
Dew Point: 12°F , -11°C
Humidity: 79%
Barometer: 30.14 inHg , 1020.7 hPa
Clouds: Clear
Visibility: 10 miles , 16 km
2018/11/22 11:15 KDWX 221115Z AUTO 00000KT 10SM CLR M08/M11 A3014 RMK AO2 T10831113
KEEO - Meeker, Colorado, USA
Distance from station: SSW 269mi, 433km
Updated: Thu, 22-Nov-2018 3:53am MST
Clear
Clear
 Wind from calm
Wind: Calm
Temperature: 19°F , -7°C
Dew Point: 9°F , -13°C
Humidity: 63%
Barometer: 30.17 inHg , 1021.7 hPa
Clouds: Clear
Visibility: 10 miles , 16 km
2018/11/22 10:53 KEEO 221053Z AUTO 00000KT 10SM CLR M07/M13 A3017 RMK AO2 SLP209 T10721133